2022年5月18日 11:002022年5月18日 20:00有效
时间
星期三
11:00
星期三
12:00
星期三
13:00
星期三
14:00
星期三
15:00
星期三
16:00
星期三
17:00
星期三
18:00
星期三
19:00
代码
VFR
VFR
VFR
VFR
VFR
VFR
VFR
VFR
VFR
天气
天空晴朗
天空晴朗
天空晴朗
天空晴朗
天空晴朗
天空晴朗
天空晴朗
天空晴朗
天空晴朗
能见度
10 km+
10 km+
10 km+
10 km+
10 km+
10 km+
10 km+
10 km+
10 km+
天花板
-
-
-
-
-
-
-
-
-
160°
160°
160°
160°
160°
160°
160°
160°
160°
160°
160°
160°
160°
160°
160°
160°
160°
160°
速度
6 kt
6 kt
6 kt
6 kt
6 kt
6 kt
6 kt
6 kt
6 kt
阵风
温度/星期日

原版的

TAF LFSL 180800Z 1809/1818 16006KT CAVOK

TAF Aérodrome de Figeac - Livernon

该字段位于法国中。 该机场有一条跑道: 11/29.

这份报告是针对2022年5月18日 10:00, 当地时间在Brive-Souillac进行的。 从2022年5月18日 11:00到2022年5月18日 20:00, 当地时间有效.

预报

  • 从星期三 11:00到20:00

    • 风: 风来自160°方向,速度为6 kt。
    • CAVOK: 天气为CAVOK。这意味着在5.000 ft或MSA(最低安全高度)以下(以较高者为准)以下没有云。这也意味着没有观测到积雨云或高耸的积云,可见度为10 km 或者更多或更高。此外,不会有雾,降雨或其他重要天气。

白天

今天,太阳从06:21升起,在21:17降落。 这适用于Aérodrome de Figeac - Livernon,世界夏令时可能有所不同。 当地时间与世界标准时间之间的时差为+2 小时。 夏令时目前正在进行中。

下载我们的应用程序

在您的手机和平板电脑上轻松访问所有航空天气。
有许多网站上没有的功能,如离线支持和个人机场列表。

Studio Eveline

Benalmádena
España